Time;durP1;ratioP1;P1;durP2;ratioP2;P2;SDS_P1;SDS_P2;PMS_P1;PMS_P2;Temp;Humidity;BMP_temperature;BMP_pressure;BME280_temperature;BME280_humidity;BME280_pressure;Samples;Min_cycle;Max_cycle;Signal;HPM_P1;HPM_P2
2022/08/20 00:00:41;;;;;;;16.17;13.75;;;19.30;99.90;;;;;;4984265;28;20397;-59
2022/08/20 00:03:20;;;;;;;16.92;13.10;;;19.30;99.90;;;;;;4984885;28;20073;-59
2022/08/20 00:05:57;;;;;;;19.17;13.70;;;19.40;99.90;;;;;;4986737;28;20120;-59
2022/08/20 00:08:23;;;;;;;17.00;13.77;;;19.30;99.90;;;;;;4993033;28;20082;-59
2022/08/20 00:10:51;;;;;;;16.60;13.60;;;19.30;99.90;;;;;;4983567;28;20074;-59
2022/08/20 00:13:22;;;;;;;19.35;13.45;;;19.20;99.90;;;;;;4966324;28;20050;-59
2022/08/20 00:15:48;;;;;;;19.23;13.02;;;19.20;99.90;;;;;;4984229;28;20046;-59
2022/08/20 00:18:14;;;;;;;17.50;13.20;;;19.20;99.90;;;;;;4983812;28;20049;-60
2022/08/20 00:20:44;;;;;;;17.30;14.00;;;19.20;99.90;;;;;;4984214;28;20046;-59
2022/08/20 00:23:11;;;;;;;17.58;13.80;;;19.30;99.90;;;;;;4984315;28;20042;-59
2022/08/20 00:25:37;;;;;;;15.27;13.00;;;19.20;99.90;;;;;;4983937;28;20046;-55
2022/08/20 00:28:05;;;;;;;15.20;13.60;;;19.20;99.90;;;;;;4983633;28;20181;-59
2022/08/20 00:30:33;;;;;;;16.95;14.07;;;19.20;99.90;;;;;;4984200;28;20136;-60
2022/08/20 00:33:06;;;;;;;16.50;13.27;;;19.20;99.90;;;;;;4983889;28;20049;-59
2022/08/20 00:35:35;;;;;;;16.55;13.35;;;19.20;99.90;;;;;;4984192;28;20055;-59
2022/08/20 00:38:01;;;;;;;18.52;13.55;;;19.10;99.90;;;;;;4984149;28;20050;-59
2022/08/20 00:40:36;;;;;;;14.75;12.95;;;19.10;99.90;;;;;;4983804;28;20169;-59
2022/08/20 00:43:04;;;;;;;16.90;13.43;;;19.10;99.90;;;;;;4983420;28;20038;-59
2022/08/20 00:45:32;;;;;;;19.70;13.45;;;19.10;99.90;;;;;;4983991;28;20536;-59
2022/08/20 00:47:58;;;;;;;17.67;13.77;;;19.10;99.90;;;;;;4983195;28;20046;-59
2022/08/20 00:50:32;;;;;;;20.38;12.93;;;19.10;99.90;;;;;;4983578;28;20100;-59
2022/08/20 00:52:59;;;;;;;17.85;13.18;;;19.00;99.90;;;;;;4983075;28;20525;-59
2022/08/20 00:55:26;;;;;;;17.33;12.30;;;19.00;99.90;;;;;;4983389;28;20409;-59
2022/08/20 00:57:55;;;;;;;19.20;12.60;;;19.00;99.90;;;;;;4982999;28;20042;-59
2022/08/20 01:00:28;;;;;;;17.90;13.32;;;19.00;99.90;;;;;;4983530;28;20588;-59
2022/08/20 01:02:55;;;;;;;15.98;12.25;;;18.90;99.90;;;;;;4982641;28;20038;-59
2022/08/20 01:05:22;;;;;;;17.15;12.45;;;18.90;99.90;;;;;;4983796;28;20054;-59
2022/08/20 01:07:50;;;;;;;17.85;12.80;;;18.80;99.90;;;;;;4991970;28;20053;-59
2022/08/20 01:10:26;;;;;;;15.70;11.98;;;18.80;99.90;;;;;;5020342;23;20042;-58
2022/08/20 01:12:56;;;;;;;18.52;12.00;;;18.80;99.90;;;;;;4992535;28;20061;-55
2022/08/20 01:15:25;;;;;;;18.65;12.18;;;18.80;99.90;;;;;;4984961;28;20053;-58
2022/08/20 01:17:53;;;;;;;16.65;11.98;;;18.80;99.90;;;;;;5000856;28;20089;-56
2022/08/20 01:20:24;;;;;;;20.08;11.90;;;18.70;99.90;;;;;;4985472;28;20042;-58
2022/08/20 01:26:05;;;;;;;15.88;11.35;;;18.70;99.90;;;;;;5003034;28;20061;-57
2022/08/20 01:28:41;;;;;;;16.30;11.88;;;18.70;99.90;;;;;;4985043;28;20104;-58
2022/08/20 01:31:09;;;;;;;15.88;12.00;;;18.60;99.90;;;;;;5003383;28;20050;-58
2022/08/20 01:33:36;;;;;;;14.80;11.48;;;18.60;99.90;;;;;;5002947;28;20046;-59
2022/08/20 01:36:03;;;;;;;20.13;11.40;;;18.60;99.90;;;;;;5003132;28;20037;-57
2022/08/20 01:38:29;;;;;;;16.02;11.77;;;18.60;99.90;;;;;;5003128;28;20030;-55
2022/08/20 01:41:06;;;;;;;20.67;12.07;;;18.60;99.90;;;;;;5003035;28;20568;-55
2022/08/20 01:43:32;;;;;;;21.15;12.05;;;18.60;99.90;;;;;;5002308;28;20050;-56
2022/08/20 01:45:58;;;;;;;15.15;11.75;;;18.60;99.90;;;;;;5003062;28;20046;-56
2022/08/20 01:48:24;;;;;;;16.25;10.85;;;18.60;99.90;;;;;;4985104;28;20140;-56
2022/08/20 01:51:04;;;;;;;17.75;11.48;;;18.60;99.90;;;;;;5002893;28;20121;-56
2022/08/20 01:53:38;;;;;;;18.25;12.80;;;18.60;99.90;;;;;;5006552;28;20061;-56
2022/08/20 01:56:08;;;;;;;22.25;11.13;;;18.60;99.90;;;;;;4988988;28;20038;-58
2022/08/20 01:58:38;;;;;;;16.17;11.98;;;18.60;99.90;;;;;;5006165;28;20455;-56
2022/08/20 02:01:04;;;;;;;19.27;11.20;;;18.50;99.90;;;;;;5006861;28;20046;-58
2022/08/20 02:03:30;;;;;;;20.08;11.68;;;18.40;99.90;;;;;;5006189;28;20100;-56
2022/08/20 02:05:59;;;;;;;19.73;11.00;;;18.40;99.90;;;;;;5005700;28;20392;-56
2022/08/20 02:08:25;;;;;;;17.02;11.05;;;18.50;99.90;;;;;;5006575;28;20129;-55
2022/08/20 02:10:50;;;;;;;16.25;11.23;;;18.40;99.90;;;;;;5005979;28;20049;-56
2022/08/20 02:13:16;;;;;;;17.42;10.90;;;18.40;99.90;;;;;;5005566;28;20042;-56
2022/08/20 02:15:42;;;;;;;19.17;10.02;;;18.30;99.90;;;;;;5005676;28;20099;-55
2022/08/20 02:18:11;;;;;;;16.17;10.13;;;18.30;99.90;;;;;;5006343;28;20612;-56
2022/08/20 02:20:38;;;;;;;15.35;9.57;;;18.30;99.90;;;;;;5005521;28;20045;-56
2022/08/20 02:23:05;;;;;;;21.23;10.70;;;18.30;99.90;;;;;;4988754;28;20050;-56
2022/08/20 02:25:33;;;;;;;19.40;10.18;;;18.30;99.90;;;;;;5006568;28;20042;-56
2022/08/20 02:28:02;;;;;;;19.80;10.55;;;18.20;99.90;;;;;;5004511;28;20191;-56
2022/08/20 02:30:36;;;;;;;19.73;9.55;;;18.20;99.90;;;;;;5005882;28;20042;-55
2022/08/20 02:33:04;;;;;;;16.23;9.52;;;18.20;99.90;;;;;;5006399;28;20050;-56
2022/08/20 02:35:30;;;;;;;14.23;9.43;;;18.20;99.90;;;;;;5005720;28;20054;-56
2022/08/20 02:37:56;;;;;;;19.95;9.25;;;18.20;99.90;;;;;;4987694;28;20056;-56
2022/08/20 02:40:27;;;;;;;19.52;9.55;;;18.10;99.90;;;;;;5005844;28;20046;-55
2022/08/20 02:42:53;;;;;;;15.13;8.80;;;18.20;99.90;;;;;;5004510;28;20084;-55
2022/08/20 02:45:21;;;;;;;14.85;8.75;;;18.20;99.90;;;;;;5005508;28;20108;-56
2022/08/20 02:47:47;;;;;;;17.52;8.98;;;18.20;99.90;;;;;;5005684;28;20042;-56
2022/08/20 02:50:16;;;;;;;17.35;9.50;;;18.30;99.90;;;;;;4987545;28;20112;-56
2022/08/20 02:52:42;;;;;;;20.80;9.85;;;18.30;99.90;;;;;;4987333;28;20052;-56
2022/08/20 02:55:11;;;;;;;14.98;9.23;;;18.20;99.90;;;;;;5005537;28;20050;-56
2022/08/20 02:57:37;;;;;;;20.35;9.32;;;18.20;99.90;;;;;;4986726;28;20444;-58
2022/08/20 03:00:10;;;;;;;15.35;9.38;;;18.10;99.90;;;;;;4987657;28;20041;-56
2022/08/20 03:02:36;;;;;;;14.33;8.37;;;18.10;99.90;;;;;;5005456;28;20054;-57
2022/08/20 03:05:03;;;;;;;18.05;7.93;;;18.00;99.90;;;;;;5005556;28;20046;-56
2022/08/20 03:07:29;;;;;;;15.88;8.95;;;18.00;99.90;;;;;;4986579;28;20058;-55
2022/08/20 03:09:54;;;;;;;20.95;8.90;;;18.00;99.90;;;;;;5004937;28;20535;-56
2022/08/20 03:12:20;;;;;;;15.80;8.43;;;18.00;99.90;;;;;;4985915;28;20057;-56
2022/08/20 03:14:46;;;;;;;19.25;8.40;;;18.00;99.90;;;;;;5003635;28;20120;-56
2022/08/20 03:17:12;;;;;;;16.67;8.63;;;17.90;99.90;;;;;;5004365;28;20104;-56
2022/08/20 03:19:37;;;;;;;18.10;8.52;;;17.90;99.90;;;;;;5003828;28;20519;-56
2022/08/20 03:22:04;;;;;;;17.75;8.10;;;17.90;99.90;;;;;;5004516;28;20041;-56
2022/08/20 03:24:29;;;;;;;14.10;7.78;;;17.80;99.90;;;;;;5003417;28;20400;-56
2022/08/20 03:26:55;;;;;;;14.63;8.35;;;17.80;99.90;;;;;;5003799;28;20046;-57
2022/08/20 03:29:20;;;;;;;15.85;8.45;;;17.80;99.90;;;;;;4985497;28;20046;-56
2022/08/20 03:31:46;;;;;;;16.17;7.80;;;17.70;99.90;;;;;;5003341;28;20046;-56
2022/08/20 03:34:12;;;;;;;14.90;7.38;;;17.70;99.90;;;;;;5003776;28;20050;-56
2022/08/20 03:36:38;;;;;;;13.35;7.82;;;17.60;99.90;;;;;;5003769;28;20037;-57
2022/08/20 03:39:06;;;;;;;16.65;8.27;;;17.60;99.90;;;;;;5004074;28;20095;-55
2022/08/20 03:41:32;;;;;;;19.35;7.90;;;17.60;99.90;;;;;;5003943;28;20050;-56
2022/08/20 03:43:58;;;;;;;16.50;8.23;;;17.60;99.90;;;;;;4984986;28;20057;-56
2022/08/20 03:46:24;;;;;;;14.98;7.88;;;17.50;99.90;;;;;;5003893;28;20092;-56
2022/08/20 03:48:54;;;;;;;16.45;8.10;;;17.50;99.90;;;;;;5002678;28;20042;-56
2022/08/20 03:51:20;;;;;;;12.82;7.32;;;17.50;99.90;;;;;;5003517;28;20080;-56
2022/08/20 03:53:46;;;;;;;14.38;7.20;;;17.40;99.90;;;;;;5003324;28;20054;-56
2022/08/20 03:56:11;;;;;;;15.63;7.53;;;17.40;99.90;;;;;;5003105;28;20045;-56
2022/08/20 03:58:37;;;;;;;13.13;7.85;;;17.50;99.90;;;;;;5002761;28;20504;-57
2022/08/20 04:01:05;;;;;;;15.23;7.65;;;17.40;99.90;;;;;;5003961;28;20042;-56
2022/08/20 04:03:31;;;;;;;16.33;7.90;;;17.40;99.90;;;;;;5004069;28;20653;-56
2022/08/20 04:05:58;;;;;;;13.00;7.00;;;17.40;99.90;;;;;;5002064;28;20056;-56
2022/08/20 04:08:26;;;;;;;15.82;7.03;;;17.40;99.90;;;;;;5003220;28;20136;-56
2022/08/20 04:10:55;;;;;;;15.65;7.38;;;17.30;99.90;;;;;;4964812;28;1111776;-56
2022/08/20 04:13:21;;;;;;;10.65;6.72;;;17.20;99.90;;;;;;5002872;28;20061;-56
2022/08/20 04:15:48;;;;;;;16.10;6.80;;;17.30;99.90;;;;;;5004196;28;20050;-56
2022/08/20 04:18:19;;;;;;;19.20;7.55;;;17.30;99.90;;;;;;5003974;28;20125;-56
2022/08/20 04:20:45;;;;;;;14.77;6.90;;;17.30;99.90;;;;;;5003186;28;20044;-56
2022/08/20 04:23:12;;;;;;;16.55;6.82;;;17.20;99.90;;;;;;5003721;28;20077;-56
2022/08/20 04:25:41;;;;;;;17.05;6.25;;;17.20;99.90;;;;;;5003402;28;20056;-57
2022/08/20 04:28:13;;;;;;;14.95;6.18;;;17.20;99.90;;;;;;5002778;28;20445;-57
2022/08/20 04:30:41;;;;;;;11.57;5.65;;;17.20;99.90;;;;;;5003211;28;20042;-56
2022/08/20 04:33:07;;;;;;;10.27;5.20;;;17.30;99.90;;;;;;5003684;28;20052;-57
2022/08/20 04:35:33;;;;;;;15.38;6.03;;;17.30;99.90;;;;;;5003726;28;20056;-56
2022/08/20 04:38:01;;;;;;;12.52;5.60;;;17.30;99.90;;;;;;5003763;28;20639;-56
2022/08/20 04:43:11;;;;;;;17.90;5.45;;;17.30;99.90;;;;;;5002918;28;20062;-57
2022/08/20 04:45:37;;;;;;;12.05;5.15;;;17.30;99.90;;;;;;5003585;28;20136;-57
2022/08/20 04:48:05;;;;;;;14.38;5.07;;;17.30;99.90;;;;;;5003760;28;20129;-56
2022/08/20 04:50:36;;;;;;;12.73;5.05;;;17.30;99.90;;;;;;5003606;28;20077;-56
2022/08/20 04:53:04;;;;;;;13.52;4.70;;;17.30;99.90;;;;;;5003874;28;20053;-56
2022/08/20 04:55:30;;;;;;;15.07;4.78;;;17.30;99.90;;;;;;5003746;28;20504;-56
2022/08/20 04:58:06;;;;;;;14.05;4.70;;;17.20;99.90;;;;;;5002296;28;21061;-56
2022/08/20 05:00:32;;;;;;;14.95;4.50;;;17.30;99.90;;;;;;5003868;28;20189;-56
2022/08/20 05:02:58;;;;;;;11.60;4.47;;;17.40;99.90;;;;;;5003126;28;20050;-55
2022/08/20 05:05:25;;;;;;;11.93;4.57;;;17.40;99.90;;;;;;5002583;28;20049;-56
2022/08/20 05:07:51;;;;;;;9.68;4.32;;;17.40;99.90;;;;;;5003193;28;20042;-56
2022/08/20 05:10:18;;;;;;;12.65;4.18;;;17.40;99.90;;;;;;5003054;28;20042;-56
2022/08/20 05:12:44;;;;;;;11.48;3.78;;;17.40;99.90;;;;;;5001938;28;20049;-55
2022/08/20 05:15:11;;;;;;;12.82;3.47;;;17.40;99.90;;;;;;5003044;28;20435;-56
2022/08/20 05:17:38;;;;;;;12.00;4.10;;;17.40;99.90;;;;;;5003296;28;20569;-57
2022/08/20 05:20:06;;;;;;;12.45;3.97;;;17.40;99.90;;;;;;5003572;28;20452;-56
2022/08/20 05:22:32;;;;;;;13.80;4.00;;;17.40;99.90;;;;;;5003097;28;20136;-56
2022/08/20 05:25:00;;;;;;;13.57;3.65;;;17.30;99.90;;;;;;5002920;28;20632;-56
2022/08/20 05:27:26;;;;;;;10.60;3.55;;;17.30;99.90;;;;;;5006066;28;20082;-56
2022/08/20 05:29:59;;;;;;;12.60;4.00;;;17.20;99.90;;;;;;5006282;28;20103;-57
2022/08/20 05:32:24;;;;;;;13.40;3.95;;;17.20;99.90;;;;;;5007512;28;21066;-56
2022/08/20 05:34:50;;;;;;;11.13;3.67;;;17.20;99.90;;;;;;5006895;28;20045;-56
2022/08/20 05:37:16;;;;;;;10.25;3.97;;;17.20;99.90;;;;;;5006805;28;20064;-56
2022/08/20 05:39:43;;;;;;;11.25;3.20;;;17.30;99.90;;;;;;5006648;28;20103;-56
2022/08/20 05:42:10;;;;;;;10.23;3.20;;;17.30;99.90;;;;;;5006327;28;20120;-56
2022/08/20 05:44:36;;;;;;;9.18;3.22;;;17.30;99.90;;;;;;5006187;28;20050;-57
2022/08/20 05:47:03;;;;;;;10.38;3.15;;;17.30;99.90;;;;;;5007406;28;20046;-56
2022/08/20 05:49:29;;;;;;;10.82;2.90;;;17.30;99.90;;;;;;5006793;28;20132;-57
2022/08/20 05:51:54;;;;;;;11.50;3.17;;;17.20;99.90;;;;;;5006598;28;20489;-56
2022/08/20 05:54:22;;;;;;;10.15;3.38;;;17.20;99.90;;;;;;4988362;28;20416;-56
2022/08/20 05:56:49;;;;;;;10.98;3.33;;;17.20;99.90;;;;;;5005764;28;20073;-57
2022/08/20 05:59:14;;;;;;;8.43;3.45;;;17.20;99.90;;;;;;5006742;28;20429;-56
2022/08/20 06:01:41;;;;;;;12.80;4.25;;;17.20;99.90;;;;;;5005994;28;20046;-56
2022/08/20 06:04:23;;;;;;;11.70;3.47;;;17.30;99.90;;;;;;5006373;28;20042;-56
2022/08/20 06:06:55;;;;;;;9.80;2.92;;;17.30;99.90;;;;;;5005633;28;20045;-56
2022/08/20 06:09:23;;;;;;;9.20;3.00;;;17.30;99.90;;;;;;5006322;28;20733;-56
2022/08/20 06:11:49;;;;;;;14.68;3.47;;;17.40;99.90;;;;;;5005179;28;20050;-57
2022/08/20 06:14:15;;;;;;;11.50;3.40;;;17.30;99.90;;;;;;5006468;28;20050;-56
2022/08/20 06:16:42;;;;;;;12.93;3.53;;;17.40;99.90;;;;;;5005781;28;20100;-58
2022/08/20 06:19:08;;;;;;;11.05;3.08;;;17.40;99.90;;;;;;5006125;28;20054;-56
2022/08/20 06:21:34;;;;;;;8.57;2.90;;;17.30;99.90;;;;;;5006823;28;20042;-56
2022/08/20 06:23:59;;;;;;;8.20;2.90;;;17.40;99.90;;;;;;5005469;28;20048;-56
2022/08/20 06:26:25;;;;;;;11.80;3.63;;;17.50;99.90;;;;;;5006242;28;20057;-56
2022/08/20 06:28:51;;;;;;;12.00;3.10;;;17.60;99.90;;;;;;5005170;28;20045;-56
2022/08/20 06:31:17;;;;;;;9.18;2.88;;;17.80;99.90;;;;;;5006172;28;20049;-56
2022/08/20 06:33:43;;;;;;;7.65;3.10;;;18.40;99.90;;;;;;4971491;28;20628;-56
2022/08/20 06:36:08;;;;;;;11.00;2.67;;;19.10;99.90;;;;;;5006104;28;20042;-56
2022/08/20 06:38:34;;;;;;;9.27;2.38;;;19.60;99.90;;;;;;5005507;28;20045;-56
2022/08/20 06:41:00;;;;;;;8.02;2.30;;;19.80;99.90;;;;;;4987831;28;20566;-56
2022/08/20 06:43:25;;;;;;;10.43;2.47;;;19.70;99.90;;;;;;5005193;28;20099;-55
2022/08/20 06:45:56;;;;;;;9.13;2.28;;;19.40;99.90;;;;;;5005573;28;20246;-57
2022/08/20 06:48:22;;;;;;;11.50;2.88;;;19.30;99.90;;;;;;5005124;28;20077;-55
2022/08/20 06:50:48;;;;;;;7.85;2.42;;;19.40;99.90;;;;;;5005566;28;20073;-57
2022/08/20 06:53:17;;;;;;;8.35;2.28;;;19.50;99.90;;;;;;5005367;28;20095;-56
2022/08/20 06:55:50;;;;;;;9.82;2.33;;;19.20;99.90;;;;;;5005403;28;20049;-55
2022/08/20 06:58:16;;;;;;;10.25;2.67;;;19.30;99.90;;;;;;5004952;28;20050;-57
2022/08/20 07:00:43;;;;;;;12.40;2.20;;;20.00;99.90;;;;;;5005606;28;20071;-58
2022/08/20 07:03:09;;;;;;;9.13;2.55;;;20.80;99.90;;;;;;5005264;28;20459;-56
2022/08/20 07:05:41;;;;;;;7.28;1.90;;;21.00;99.90;;;;;;5004241;28;20042;-57
2022/08/20 07:08:08;;;;;;;7.47;1.80;;;21.30;99.90;;;;;;5001379;28;20046;-57
2022/08/20 07:10:34;;;;;;;10.55;1.63;;;21.60;99.90;;;;;;5005548;28;20061;-56
2022/08/20 07:13:00;;;;;;;8.30;1.63;;;21.70;99.90;;;;;;5004490;28;20553;-55
2022/08/20 07:15:26;;;;;;;6.13;1.70;;;22.20;99.90;;;;;;5005023;28;20148;-56
2022/08/20 07:17:57;;;;;;;6.75;1.40;;;22.00;99.90;;;;;;5004994;28;20099;-57
2022/08/20 07:20:23;;;;;;;7.93;1.80;;;21.90;99.90;;;;;;5004772;28;20042;-56
2022/08/20 07:22:49;;;;;;;8.77;1.75;;;21.70;99.90;;;;;;4987432;28;20125;-56
2022/08/20 07:25:17;;;;;;;5.93;1.33;;;21.50;99.90;;;;;;5005260;28;20112;-56
2022/08/20 07:27:43;;;;;;;7.22;1.45;;;21.50;99.90;;;;;;5003504;28;20046;-56
2022/08/20 07:32:58;;;;;;;7.47;1.73;;;20.90;99.90;;;;;;5004595;28;20412;-57
2022/08/20 07:35:24;;;;;;;7.28;1.40;;;20.50;99.90;;;;;;5004438;28;20054;-57
2022/08/20 07:37:50;;;;;;;7.28;1.60;;;20.70;99.90;;;;;;4986687;28;20038;-57
2022/08/20 07:40:20;;;;;;;7.10;1.20;;;20.60;99.90;;;;;;5004914;28;20049;-57
2022/08/20 07:42:47;;;;;;;5.60;1.30;;;20.40;99.90;;;;;;5003325;28;20480;-57
2022/08/20 07:45:14;;;;;;;7.47;1.70;;;20.40;99.90;;;;;;5004166;28;20054;-56
2022/08/20 07:47:41;;;;;;;9.00;1.77;;;20.20;99.90;;;;;;5004016;28;20177;-56
2022/08/20 07:50:10;;;;;;;4.95;1.35;;;20.20;99.90;;;;;;5003056;28;20068;-56
2022/08/20 07:52:36;;;;;;;6.80;1.58;;;20.10;99.90;;;;;;5004056;28;20115;-57
2022/08/20 07:55:06;;;;;;;6.55;1.58;;;20.10;99.90;;;;;;5004500;28;20141;-56
2022/08/20 07:57:32;;;;;;;5.88;1.35;;;19.90;99.90;;;;;;4985615;28;20113;-56
2022/08/20 07:59:58;;;;;;;6.95;1.55;;;19.90;99.90;;;;;;5003953;28;20140;-57
2022/08/20 08:02:25;;;;;;;7.47;1.80;;;20.00;99.90;;;;;;5004248;28;20358;-55
2022/08/20 08:04:52;;;;;;;6.47;2.25;;;20.00;99.90;;;;;;5003788;28;20455;-57
2022/08/20 08:07:17;;;;;;;6.22;1.52;;;20.50;99.90;;;;;;5002903;28;20042;-57
2022/08/20 08:09:44;;;;;;;5.68;1.40;;;20.70;99.90;;;;;;5003546;28;20050;-57
2022/08/20 08:12:12;;;;;;;7.00;1.65;;;20.70;99.90;;;;;;5002778;28;20428;-58
2022/08/20 08:14:40;;;;;;;6.47;1.33;;;20.50;99.90;;;;;;5003465;28;20057;-58
2022/08/20 08:17:08;;;;;;;5.70;1.45;;;20.50;99.90;;;;;;5003774;28;20045;-58
2022/08/20 08:19:45;;;;;;;4.55;1.00;;;20.50;99.90;;;;;;5004330;28;20049;-57
2022/08/20 08:22:13;;;;;;;3.58;0.90;;;20.80;99.90;;;;;;4986109;28;20077;-57
2022/08/20 08:24:40;;;;;;;5.70;1.15;;;20.80;99.90;;;;;;4985816;28;20111;-57
2022/08/20 08:27:07;;;;;;;4.32;1.20;;;20.90;99.90;;;;;;5002989;28;20532;-58
2022/08/20 08:29:34;;;;;;;6.13;1.10;;;20.90;99.90;;;;;;5003626;28;20050;-57
2022/08/20 08:32:01;;;;;;;4.78;1.23;;;21.20;99.90;;;;;;5003905;28;20696;-57
2022/08/20 08:34:27;;;;;;;4.90;1.23;;;21.70;99.90;;;;;;5003634;28;20180;-57
2022/08/20 08:36:53;;;;;;;6.35;1.20;;;22.20;99.90;;;;;;5002980;28;20465;-57
2022/08/20 08:39:19;;;;;;;3.88;1.40;;;22.50;99.90;;;;;;4985771;28;20121;-57
2022/08/20 08:41:48;;;;;;;5.63;1.20;;;22.90;99.90;;;;;;5002417;28;20053;-57
2022/08/20 08:44:37;;;;;;;5.35;1.42;;;23.10;99.90;;;;;;5003047;28;20176;-57
2022/08/20 08:47:20;;;;;;;5.80;1.30;;;22.70;99.90;;;;;;5003570;28;20058;-57
2022/08/20 08:49:46;;;;;;;5.40;1.17;;;22.30;99.90;;;;;;5002674;28;20052;-57
2022/08/20 08:52:29;;;;;;;4.15;1.02;;;22.30;99.90;;;;;;5003417;28;20463;-57
2022/08/20 08:54:58;;;;;;;5.45;1.08;;;22.20;99.90;;;;;;5002366;28;20054;-57
2022/08/20 08:57:25;;;;;;;7.28;1.38;;;22.20;99.90;;;;;;5002787;28;20101;-57
2022/08/20 08:59:58;;;;;;;6.75;1.30;;;22.60;99.90;;;;;;5002938;28;20046;-57
2022/08/20 09:02:25;;;;;;;5.10;1.40;;;22.70;99.90;;;;;;4985008;28;20046;-57
2022/08/20 09:04:54;;;;;;;6.78;1.35;;;22.80;99.90;;;;;;5003139;28;20056;-57
2022/08/20 09:07:22;;;;;;;6.28;1.17;;;22.90;99.90;;;;;;5002325;28;20635;-57
2022/08/20 09:09:48;;;;;;;5.13;1.10;;;23.20;99.90;;;;;;5002248;28;20143;-57
2022/08/20 09:12:23;;;;;;;4.50;1.13;;;23.30;99.90;;;;;;5002022;28;20544;-57
2022/08/20 09:14:50;;;;;;;4.57;1.05;;;23.50;99.90;;;;;;5002568;28;20064;-58
2022/08/20 09:17:19;;;;;;;6.57;1.27;;;23.80;99.90;;;;;;5002827;28;20161;-57
2022/08/20 09:19:44;;;;;;;5.35;0.80;;;24.30;99.90;;;;;;5002655;28;20543;-57
2022/08/20 09:22:13;;;;;;;5.00;1.00;;;24.60;99.90;;;;;;5002946;28;20042;-57
2022/08/20 09:24:40;;;;;;;5.47;1.10;;;24.70;99.90;;;;;;5002109;28;20038;-57
2022/08/20 09:27:06;;;;;;;5.03;1.00;;;23.90;99.90;;;;;;5002139;28;20045;-57
2022/08/20 09:29:32;;;;;;;4.93;1.40;;;23.80;99.90;;;;;;5003036;28;20065;-57
2022/08/20 09:32:10;;;;;;;5.22;1.00;;;24.10;99.90;;;;;;5002176;28;20042;-57
2022/08/20 09:34:38;;;;;;;4.43;1.30;;;24.10;99.90;;;;;;5002522;28;20060;-57
2022/08/20 09:37:04;;;;;;;6.30;1.38;;;24.50;99.90;;;;;;5003151;28;20037;-57
2022/08/20 09:39:30;;;;;;;2.78;1.00;;;23.90;99.90;;;;;;5002479;28;20045;-57
2022/08/20 09:42:06;;;;;;;4.47;0.93;;;24.80;99.90;;;;;;5002297;28;20141;-57
2022/08/20 09:44:32;;;;;;;3.72;0.90;;;24.80;99.90;;;;;;5003149;28;20042;-56
2022/08/20 09:46:57;;;;;;;5.45;1.30;;;24.80;99.90;;;;;;5002030;28;20496;-57
2022/08/20 09:49:23;;;;;;;4.25;1.13;;;24.70;99.90;;;;;;4985034;28;20061;-57
2022/08/20 09:51:48;;;;;;;5.32;1.10;;;24.70;99.90;;;;;;5002629;28;20049;-57
2022/08/20 09:54:14;;;;;;;5.32;1.30;;;24.80;99.90;;;;;;4984312;28;20046;-58
2022/08/20 09:56:40;;;;;;;5.20;1.33;;;25.20;99.90;;;;;;5001947;28;20042;-57
2022/08/20 09:59:05;;;;;;;7.80;1.38;;;25.20;99.90;;;;;;5002795;28;20133;-58
2022/08/20 10:01:32;;;;;;;4.50;0.93;;;25.30;99.90;;;;;;5003117;28;20127;-57
2022/08/20 10:03:57;;;;;;;6.57;1.40;;;25.00;99.90;;;;;;4983936;28;20057;-56
2022/08/20 10:06:23;;;;;;;6.63;1.27;;;24.50;99.90;;;;;;5001881;28;20046;-57
2022/08/20 10:08:49;;;;;;;5.25;1.00;;;24.60;99.90;;;;;;5002048;28;20128;-56
2022/08/20 10:11:15;;;;;;;3.55;1.02;;;24.40;99.90;;;;;;5001218;28;20105;-57
2022/08/20 10:13:41;;;;;;;5.60;1.02;;;24.80;99.90;;;;;;5005639;28;20500;-57
2022/08/20 10:16:07;;;;;;;3.03;0.93;;;24.60;99.90;;;;;;5006145;28;20073;-57
2022/08/20 10:18:34;;;;;;;5.63;1.10;;;24.10;99.90;;;;;;5006422;28;20041;-57
2022/08/20 10:21:00;;;;;;;5.00;1.13;;;24.20;99.90;;;;;;5005766;28;20245;-56
2022/08/20 10:23:25;;;;;;;4.80;1.20;;;24.60;99.90;;;;;;4988190;28;20049;-57
2022/08/20 10:25:51;;;;;;;4.82;0.90;;;25.20;99.90;;;;;;5005871;28;20126;-57
2022/08/20 10:28:17;;;;;;;3.47;1.05;;;24.90;99.90;;;;;;5004272;28;20042;-56
2022/08/20 10:30:43;;;;;;;2.67;0.88;;;24.40;99.90;;;;;;5005398;28;20046;-57
2022/08/20 10:33:09;;;;;;;4.07;1.00;;;24.60;99.90;;;;;;4988341;28;20057;-57
2022/08/20 10:35:35;;;;;;;5.38;1.05;;;25.00;99.90;;;;;;5005654;28;20104;-58
2022/08/20 10:38:01;;;;;;;4.15;1.17;;;25.30;99.90;;;;;;4987982;28;20041;-57
2022/08/20 10:40:27;;;;;;;5.40;1.13;;;24.40;99.90;;;;;;5005709;28;20631;-57
2022/08/20 10:42:52;;;;;;;3.88;0.80;;;24.20;99.90;;;;;;5004704;28;20073;-57
2022/08/20 10:45:18;;;;;;;4.50;1.05;;;24.60;99.90;;;;;;5005259;28;20077;-57
2022/08/20 10:47:44;;;;;;;5.40;1.42;;;25.30;99.90;;;;;;5005244;28;20124;-57
2022/08/20 10:50:14;;;;;;;4.88;1.05;;;25.20;99.90;;;;;;5005206;28;20048;-56
2022/08/20 10:52:40;;;;;;;7.05;1.38;;;25.40;99.90;;;;;;5004397;28;20041;-57
2022/08/20 10:55:07;;;;;;;4.90;1.15;;;24.80;99.90;;;;;;5005311;28;20543;-57
2022/08/20 10:57:32;;;;;;;8.88;1.50;;;25.00;99.90;;;;;;5004812;28;20046;-57
2022/08/20 10:59:59;;;;;;;5.97;1.33;;;24.50;99.90;;;;;;5004985;28;20152;-57
2022/08/20 11:02:26;;;;;;;4.35;0.90;;;24.30;99.90;;;;;;5004912;28;20049;-57
2022/08/20 11:04:53;;;;;;;4.63;1.17;;;24.90;99.90;;;;;;5005040;28;20052;-57
2022/08/20 11:07:24;;;;;;;3.83;1.25;;;25.50;99.90;;;;;;5004564;28;20046;-57
2022/08/20 11:09:50;;;;;;;4.07;1.33;;;25.30;99.90;;;;;;5004097;28;20053;-57
2022/08/20 11:12:18;;;;;;;5.32;1.30;;;25.50;99.90;;;;;;5004018;28;20057;-57
2022/08/20 11:14:44;;;;;;;7.60;1.38;;;25.20;99.90;;;;;;5004699;28;20064;-58
2022/08/20 11:17:10;;;;;;;3.92;1.05;;;24.70;99.90;;;;;;5004469;28;20088;-57
2022/08/20 11:19:43;;;;;;;5.75;1.92;;;24.50;99.90;;;;;;5004741;28;20080;-59
2022/08/20 11:22:10;;;;;;;3.55;1.13;;;24.50;99.90;;;;;;5004856;28;20104;-57
2022/08/20 11:24:36;;;;;;;6.50;1.38;;;24.60;99.90;;;;;;5003234;28;20576;-58
2022/08/20 11:27:04;;;;;;;4.75;1.17;;;24.70;99.90;;;;;;5004312;28;20396;-56
2022/08/20 11:29:30;;;;;;;6.63;1.30;;;25.00;99.90;;;;;;5004889;28;20049;-57
2022/08/20 11:31:55;;;;;;;6.30;1.10;;;25.00;99.90;;;;;;5003889;28;20037;-57
2022/08/20 11:34:21;;;;;;;7.13;1.10;;;24.70;99.90;;;;;;5004528;28;20033;-57
2022/08/20 11:36:48;;;;;;;4.65;1.10;;;24.30;99.90;;;;;;5004329;28;20048;-57
2022/08/20 11:39:14;;;;;;;3.00;1.00;;;24.10;99.90;;;;;;4986801;28;20048;-57
2022/08/20 11:41:40;;;;;;;4.72;1.33;;;24.40;99.90;;;;;;5003185;28;20041;-57
2022/08/20 11:44:05;;;;;;;6.53;1.25;;;24.30;99.90;;;;;;4986854;28;20073;-57
2022/08/20 11:46:32;;;;;;;4.95;1.25;;;25.00;99.90;;;;;;5004401;28;20104;-57
2022/08/20 11:48:58;;;;;;;5.78;1.52;;;24.90;99.90;;;;;;5002066;28;20140;-57
2022/08/20 11:51:24;;;;;;;3.60;1.00;;;25.10;99.90;;;;;;5004398;28;20042;-57
2022/08/20 11:53:49;;;;;;;6.10;1.25;;;25.00;99.90;;;;;;5003623;28;20056;-56
2022/08/20 11:56:15;;;;;;;4.82;1.50;;;25.30;99.90;;;;;;5003637;28;20037;-57
2022/08/20 11:58:41;;;;;;;5.18;1.25;;;25.90;99.90;;;;;;5003578;28;20456;-57
2022/08/20 12:01:08;;;;;;;5.13;1.48;;;26.30;99.90;;;;;;5004057;28;20049;-57
2022/08/20 12:03:34;;;;;;;4.53;1.20;;;26.10;99.90;;;;;;5004415;28;20125;-57
2022/08/20 12:06:00;;;;;;;4.75;1.30;;;25.70;99.90;;;;;;5003217;28;20415;-57
2022/08/20 12:08:28;;;;;;;3.78;1.20;;;26.10;99.90;;;;;;5004021;28;20124;-57
2022/08/20 12:10:55;;;;;;;3.80;1.10;;;26.30;99.90;;;;;;5002514;28;20081;-57
2022/08/20 12:13:20;;;;;;;5.03;1.40;;;25.70;99.90;;;;;;5003319;28;20637;-57
2022/08/20 12:15:48;;;;;;;3.85;1.10;;;26.00;99.90;;;;;;5003740;28;20108;-57
2022/08/20 12:18:14;;;;;;;5.82;1.40;;;25.90;99.90;;;;;;5003759;28;20046;-57
2022/08/20 12:20:40;;;;;;;5.45;1.33;;;25.90;99.90;;;;;;5003868;28;20034;-57
2022/08/20 12:23:06;;;;;;;4.47;1.27;;;26.50;99.90;;;;;;4985695;28;20040;-58
2022/08/20 12:25:32;;;;;;;4.25;1.45;;;26.40;99.90;;;;;;5004193;28;20439;-57
2022/08/20 12:27:58;;;;;;;4.57;1.10;;;26.40;99.90;;;;;;5002497;28;20493;-56
2022/08/20 12:30:24;;;;;;;5.18;1.30;;;26.40;99.90;;;;;;4985381;28;20050;-57
2022/08/20 12:32:50;;;;;;;7.55;2.20;;;26.60;99.90;;;;;;5003218;28;20342;-57
2022/08/20 12:35:17;;;;;;;5.85;1.70;;;26.60;99.90;;;;;;5003217;28;20132;-58
2022/08/20 12:37:44;;;;;;;5.53;1.25;;;26.30;99.90;;;;;;5002704;28;20054;-57
2022/08/20 12:40:14;;;;;;;10.20;1.80;;;25.90;99.90;;;;;;5003332;28;20357;-57
2022/08/20 12:42:40;;;;;;;8.15;1.95;;;25.60;99.90;;;;;;5002400;28;20042;-58
2022/08/20 12:45:07;;;;;;;8.30;1.50;;;25.20;99.90;;;;;;5003245;28;20405;-57
2022/08/20 12:47:35;;;;;;;6.15;1.52;;;25.30;99.90;;;;;;5003620;28;20188;-57
2022/08/20 12:50:09;;;;;;;6.80;1.30;;;25.10;99.90;;;;;;5003311;28;20049;-57